Time;durP1;ratioP1;P1;durP2;ratioP2;P2;SDS_P1;SDS_P2;PMS_P1;PMS_P2;Temp;Humidity;BMP_temperature;BMP_pressure;BME280_temperature;BME280_humidity;BME280_pressure;Samples;Min_cycle;Max_cycle;Signal;HPM_P1;HPM_P2
2023/04/11 00:00:34;;;;;;;10.95;4.22;;;;;;;18.66;47.20;100880.81;5042310;28;20033;-36
2023/04/11 00:03:00;;;;;;;10.98;3.78;;;;;;;18.66;46.81;100880.00;5041582;28;20135;-37
2023/04/11 00:05:30;;;;;;;11.93;4.70;;;;;;;18.64;47.41;100888.19;5042043;28;20060;-37
2023/04/11 00:07:56;;;;;;;11.20;4.38;;;;;;;18.64;47.49;100885.50;5040395;28;20056;-37
2023/04/11 00:10:24;;;;;;;12.70;4.75;;;;;;;18.63;47.38;100881.13;5042903;28;20502;-36
2023/04/11 00:12:55;;;;;;;12.60;4.85;;;;;;;18.62;46.98;100887.50;5045196;28;20102;-37
2023/04/11 00:15:23;;;;;;;8.95;4.30;;;;;;;18.62;47.34;100884.81;5043515;28;20049;-36
2023/04/11 00:17:50;;;;;;;13.90;5.20;;;;;;;18.61;47.04;100885.81;5041934;28;20044;-37
2023/04/11 00:20:16;;;;;;;14.05;5.50;;;;;;;18.61;47.15;100885.81;5040937;28;20175;-35
2023/04/11 00:22:43;;;;;;;11.90;4.25;;;;;;;18.60;47.52;100883.28;5039641;28;20433;-35
2023/04/11 00:25:09;;;;;;;11.30;4.43;;;;;;;18.60;47.22;100880.59;5037861;28;20062;-37
2023/04/11 00:27:36;;;;;;;9.65;4.20;;;;;;;18.59;47.15;100881.59;5039057;28;20126;-36
2023/04/11 00:30:06;;;;;;;12.77;4.70;;;;;;;18.58;47.75;100879.94;5037584;28;20044;-39
2023/04/11 00:32:33;;;;;;;12.85;4.47;;;;;;;18.57;47.42;100880.91;5040365;28;20393;-36
2023/04/11 00:35:00;;;;;;;12.48;4.20;;;;;;;18.57;47.53;100878.22;5040710;28;20060;-36
2023/04/11 00:37:27;;;;;;;9.30;4.53;;;;;;;18.56;47.47;100881.91;5038795;28;20272;-36
2023/04/11 00:39:54;;;;;;;10.45;4.57;;;;;;;18.55;47.54;100889.13;5044795;28;20052;-36
2023/04/11 00:42:21;;;;;;;12.85;4.35;;;;;;;18.55;47.52;100885.59;5042378;28;20096;-37
2023/04/11 00:44:48;;;;;;;12.30;5.10;;;;;;;18.55;47.87;100894.50;5041546;28;20494;-36
2023/04/11 00:47:14;;;;;;;11.10;5.00;;;;;;;18.53;47.44;100883.06;5044270;28;20059;-36
2023/04/11 00:49:41;;;;;;;12.35;4.38;;;;;;;18.53;47.97;100896.47;5042991;28;20055;-36
2023/04/11 00:52:08;;;;;;;10.07;4.25;;;;;;;18.53;47.87;100895.63;5037991;28;20041;-36
2023/04/11 00:54:34;;;;;;;10.63;4.82;;;;;;;18.53;47.77;100901.84;5039925;28;20044;-36
2023/04/11 00:57:03;;;;;;;9.27;5.32;;;;;;;18.53;47.63;100898.31;5043123;28;20045;-38
2023/04/11 00:59:31;;;;;;;13.35;5.13;;;;;;;18.53;47.83;100898.31;5042762;28;20466;-36
2023/04/11 01:01:58;;;;;;;9.63;4.63;;;;;;;18.53;47.99;100901.84;5044767;28;20330;-36
2023/04/11 01:04:26;;;;;;;15.18;5.22;;;;;;;18.52;48.11;100896.63;5045425;28;20130;-36
2023/04/11 01:06:57;;;;;;;11.35;5.07;;;;;;;18.50;48.02;100905.69;5041574;28;20056;-36
2023/04/11 01:09:27;;;;;;;14.25;4.85;;;;;;;18.52;48.54;100905.53;5045267;28;20059;-37
2023/04/11 01:11:55;;;;;;;10.27;4.72;;;;;;;18.51;48.26;100901.16;5042381;28;20048;-36
2023/04/11 01:14:23;;;;;;;12.13;4.85;;;;;;;18.51;47.72;100901.16;5042649;28;20075;-36
2023/04/11 01:16:50;;;;;;;11.60;4.72;;;;;;;18.50;48.07;100915.59;5034645;28;20398;-36
2023/04/11 01:19:19;;;;;;;12.07;4.65;;;;;;;18.50;48.22;100903.00;5041615;28;20052;-36
2023/04/11 01:21:48;;;;;;;11.98;4.60;;;;;;;18.50;47.80;100904.88;5042683;28;20356;-37
2023/04/11 01:24:15;;;;;;;12.20;4.55;;;;;;;18.50;48.28;100902.19;5040470;28;20060;-36
2023/04/11 01:26:42;;;;;;;12.25;5.20;;;;;;;18.49;48.61;100903.16;5039905;28;20049;-37
2023/04/11 01:29:08;;;;;;;10.52;4.80;;;;;;;18.48;48.44;100907.69;5039089;28;20073;-36
2023/04/11 01:31:35;;;;;;;9.77;4.18;;;;;;;18.48;48.57;100902.31;5040212;28;20415;-36
2023/04/11 01:34:03;;;;;;;8.35;4.18;;;;;;;18.48;48.68;100907.69;5037972;28;20060;-36
2023/04/11 01:36:31;;;;;;;9.98;4.63;;;;;;;18.47;48.57;100910.53;5042244;28;20049;-36
2023/04/11 01:38:58;;;;;;;9.18;4.30;;;;;;;18.48;48.25;100909.53;5040714;28;20460;-36
2023/04/11 01:41:26;;;;;;;13.15;5.38;;;;;;;18.47;48.82;100905.16;5049158;28;20452;-36
2023/04/11 01:43:53;;;;;;;12.38;4.88;;;;;;;18.47;48.28;100913.22;5038394;28;20121;-36
2023/04/11 01:46:20;;;;;;;11.27;4.18;;;;;;;18.47;48.68;100913.22;5038168;28;20387;-36
2023/04/11 01:48:49;;;;;;;7.80;3.83;;;;;;;18.47;48.85;100924.78;5039288;28;20052;-39
2023/04/11 01:51:16;;;;;;;9.15;4.25;;;;;;;18.46;48.50;100912.38;5039738;28;21168;-36
2023/04/11 01:53:44;;;;;;;8.52;4.13;;;;;;;18.47;48.58;100919.44;5040827;28;20049;-35
2023/04/11 01:56:11;;;;;;;8.15;4.00;;;;;;;18.46;48.62;100912.38;5041505;28;20139;-36
2023/04/11 01:58:38;;;;;;;9.57;4.00;;;;;;;18.46;48.81;100917.75;5041613;28;20054;-37
2023/04/11 02:01:05;;;;;;;9.73;4.03;;;;;;;18.46;48.69;100920.44;5040813;28;20041;-36
2023/04/11 02:03:31;;;;;;;9.95;4.18;;;;;;;18.46;48.51;100920.44;5039224;28;20076;-37
2023/04/11 02:05:58;;;;;;;11.60;4.30;;;;;;;18.45;48.56;100928.63;5040541;28;20048;-35
2023/04/11 02:08:25;;;;;;;8.98;3.72;;;;;;;18.45;48.71;100945.59;5037803;28;20060;-36
2023/04/11 02:10:51;;;;;;;9.15;3.60;;;;;;;18.43;48.50;100944.88;5036796;28;20144;-36
2023/04/11 02:13:18;;;;;;;9.50;3.65;;;;;;;18.43;48.68;100947.56;5022762;28;20472;-36
2023/04/11 02:15:44;;;;;;;8.63;3.42;;;;;;;18.42;48.48;100943.22;5042631;28;20052;-36
2023/04/11 02:18:11;;;;;;;7.85;3.88;;;;;;;18.42;48.94;100958.47;5036791;28;20084;-37
2023/04/11 02:20:41;;;;;;;7.95;3.42;;;;;;;18.42;48.43;100955.78;5043628;28;20071;-37
2023/04/11 02:23:07;;;;;;;7.57;3.22;;;;;;;18.42;48.47;100961.16;5042557;28;20140;-36
2023/04/11 02:25:34;;;;;;;8.70;3.60;;;;;;;18.41;48.73;100965.69;5047474;28;20065;-36
2023/04/11 02:28:00;;;;;;;6.03;2.90;;;;;;;18.40;49.08;100961.28;5044149;28;20368;-36
2023/04/11 02:30:27;;;;;;;6.63;3.25;;;;;;;18.40;48.56;100960.44;5041685;28;20044;-35
2023/04/11 02:32:54;;;;;;;7.65;2.90;;;;;;;18.39;48.62;100964.13;5039895;28;20448;-36
2023/04/11 02:35:20;;;;;;;9.32;3.53;;;;;;;18.38;48.92;100957.94;5043284;28;20276;-36
2023/04/11 02:37:47;;;;;;;6.78;3.30;;;;;;;18.38;48.84;100959.78;5041368;28;20052;-36
2023/04/11 02:40:13;;;;;;;6.85;2.78;;;;;;;18.37;48.87;100963.44;5040985;28;20052;-37
2023/04/11 02:42:41;;;;;;;7.13;2.90;;;;;;;18.37;48.58;100968.78;5047157;28;20441;-35
2023/04/11 02:45:10;;;;;;;7.63;2.97;;;;;;;18.35;48.47;100965.44;5043164;28;20056;-36
2023/04/11 02:47:38;;;;;;;7.03;2.75;;;;;;;18.35;48.73;100965.44;5051322;28;20048;-36
2023/04/11 02:50:05;;;;;;;5.50;2.60;;;;;;;18.34;48.71;100969.13;5046143;28;20265;-37
2023/04/11 02:52:32;;;;;;;9.00;2.60;;;;;;;18.33;48.94;100965.59;5053328;28;20357;-36
2023/04/11 02:54:59;;;;;;;10.27;2.40;;;;;;;18.32;49.10;100968.41;5053278;28;20056;-37
2023/04/11 02:57:26;;;;;;;6.30;3.15;;;;;;;18.32;48.55;100969.25;5054397;28;20045;-36
2023/04/11 02:59:53;;;;;;;6.85;2.88;;;;;;;18.32;48.83;100971.09;5051741;28;20128;-36
2023/04/11 03:02:22;;;;;;;7.90;2.80;;;;;;;18.31;48.96;100974.78;5049294;28;20052;-36
2023/04/11 03:04:49;;;;;;;7.78;2.38;;;;;;;18.32;48.51;100981.84;5050987;28;20048;-36
2023/04/11 03:07:15;;;;;;;5.03;2.20;;;;;;;18.30;48.94;100982.00;5050431;28;20103;-36
2023/04/11 03:09:42;;;;;;;5.47;2.60;;;;;;;18.30;48.72;100984.69;5053019;28;20049;-36
2023/04/11 03:12:08;;;;;;;6.60;2.47;;;;;;;18.30;48.96;100982.00;5044630;28;20053;-36
2023/04/11 03:14:35;;;;;;;9.43;2.95;;;;;;;18.31;48.98;100977.47;5042739;28;20053;-35
2023/04/11 03:17:01;;;;;;;7.35;2.53;;;;;;;18.30;48.92;100986.53;5040742;28;20060;-36
2023/04/11 03:19:28;;;;;;;7.43;2.25;;;;;;;18.30;48.61;100981.16;5042324;28;20052;-37
2023/04/11 03:21:55;;;;;;;4.90;2.20;;;;;;;18.30;48.77;100981.16;5039874;28;20041;-35
2023/04/11 03:24:21;;;;;;;8.32;2.10;;;;;;;18.28;49.03;100986.66;5036746;28;20547;-35
2023/04/11 03:26:48;;;;;;;5.22;2.38;;;;;;;18.27;48.67;100982.28;5039102;28;20400;-35
2023/04/11 03:29:15;;;;;;;5.80;2.20;;;;;;;18.26;48.58;100980.63;5043191;28;20037;-36
2023/04/11 03:31:42;;;;;;;5.82;2.15;;;;;;;18.25;48.98;100986.94;5042536;28;20132;-36
2023/04/11 03:34:08;;;;;;;5.18;1.80;;;;;;;18.23;48.88;100992.47;5044272;28;20107;-36
2023/04/11 03:36:35;;;;;;;5.22;2.22;;;;;;;18.23;49.19;100988.97;5044134;28;20057;-36
2023/04/11 03:39:02;;;;;;;6.10;2.30;;;;;;;18.21;49.07;100997.16;5040014;28;20441;-36
2023/04/11 03:41:29;;;;;;;7.18;2.25;;;;;;;18.20;49.13;100992.78;5042915;28;20130;-36
2023/04/11 03:43:55;;;;;;;5.22;2.30;;;;;;;18.19;49.20;101004.50;5050522;28;20068;-36
2023/04/11 03:46:22;;;;;;;5.90;2.10;;;;;;;18.19;49.12;101004.50;5046645;28;20131;-37
2023/04/11 03:48:49;;;;;;;6.63;2.10;;;;;;;18.17;48.78;101006.50;5039563;28;20049;-36
2023/04/11 03:51:15;;;;;;;9.32;2.10;;;;;;;18.16;48.75;101007.50;5043811;28;20053;-35
2023/04/11 03:53:42;;;;;;;4.80;2.10;;;;;;;18.15;48.63;101013.84;5043822;28;20106;-36
2023/04/11 03:56:09;;;;;;;7.90;2.03;;;;;;;18.15;48.81;101013.00;5044786;28;20045;-36
2023/04/11 03:58:35;;;;;;;6.03;1.83;;;;;;;18.14;48.63;101016.69;5043806;28;20106;-36
2023/04/11 04:01:02;;;;;;;8.15;2.40;;;;;;;18.14;49.10;101039.00;5045817;28;20045;-36
2023/04/11 04:03:29;;;;;;;5.90;2.25;;;;;;;18.14;48.90;101024.75;5044313;28;21461;-36
2023/04/11 04:05:56;;;;;;;5.88;1.90;;;;;;;18.14;48.93;101022.06;5049934;28;20045;-36
2023/04/11 04:08:22;;;;;;;5.65;1.85;;;;;;;18.12;48.88;101024.88;5042205;28;20356;-36
2023/04/11 04:10:49;;;;;;;3.75;1.92;;;;;;;18.12;48.86;101032.09;5041723;28;20048;-36
2023/04/11 04:13:15;;;;;;;4.35;1.50;;;;;;;18.10;48.72;101037.63;5040905;28;20041;-35
2023/04/11 04:15:42;;;;;;;7.50;2.35;;;;;;;18.11;48.77;101033.09;5046091;28;20553;-36
2023/04/11 04:18:09;;;;;;;4.75;1.90;;;;;;;18.09;48.80;101038.63;5048729;28;20045;-36
2023/04/11 04:20:35;;;;;;;4.95;1.85;;;;;;;18.09;49.25;101046.66;5051196;28;20053;-36
2023/04/11 04:23:03;;;;;;;6.18;2.38;;;;;;;18.09;48.57;101045.78;5050776;28;20045;-38
2023/04/11 04:25:30;;;;;;;8.57;3.08;;;;;;;18.07;49.04;101051.31;5048975;28;20471;-36
2023/04/11 04:27:56;;;;;;;8.48;2.70;;;;;;;18.08;49.14;101054.84;5049989;28;20045;-36
2023/04/11 04:30:27;;;;;;;7.55;3.67;;;;;;;18.06;49.05;101062.19;5050958;28;20056;-38
2023/04/11 04:32:57;;;;;;;7.72;3.33;;;;;;;18.06;48.96;101062.19;5048991;28;20456;-36
2023/04/11 04:35:25;;;;;;;8.50;3.65;;;;;;;18.05;48.91;101053.31;5048978;28;20085;-36
2023/04/11 04:37:52;;;;;;;10.43;4.45;;;;;;;18.04;48.66;101069.53;5049929;28;20063;-35
2023/04/11 04:40:20;;;;;;;8.40;4.28;;;;;;;18.03;49.05;101073.22;5051683;28;20053;-36
2023/04/11 04:42:56;;;;;;;13.40;5.38;;;;;;;18.02;49.07;101080.44;5048474;28;20488;-36
2023/04/11 04:45:25;;;;;;;10.07;4.65;;;;;;;17.99;49.07;101067.31;5045340;28;20111;-36
2023/04/11 04:47:51;;;;;;;9.90;5.10;;;;;;;17.99;49.19;101075.34;5046058;28;20064;-36
2023/04/11 04:50:19;;;;;;;12.35;5.85;;;;;;;17.99;48.83;101081.56;5051594;28;20433;-35
2023/04/11 04:52:46;;;;;;;13.13;6.07;;;;;;;17.99;48.81;101088.75;5051605;28;20041;-36
2023/04/11 04:55:13;;;;;;;11.38;5.40;;;;;;;17.98;49.07;101087.91;5051692;28;20053;-36
2023/04/11 04:57:41;;;;;;;12.25;6.35;;;;;;;17.97;48.57;101094.28;5050364;28;20059;-35
2023/04/11 05:00:10;;;;;;;12.35;6.05;;;;;;;17.96;49.16;101095.25;5050518;28;20057;-36
2023/04/11 05:02:39;;;;;;;14.98;6.60;;;;;;;17.95;48.96;101090.88;5051010;28;20052;-37
2023/04/11 05:05:06;;;;;;;13.82;6.85;;;;;;;17.94;49.10;101091.03;5032280;28;20059;-36
2023/04/11 05:07:33;;;;;;;14.05;6.47;;;;;;;17.94;49.01;101102.63;5052133;28;20070;-35
2023/04/11 05:10:00;;;;;;;14.95;7.03;;;;;;;17.93;48.77;101100.94;5051215;28;20098;-35
2023/04/11 05:12:26;;;;;;;13.80;6.97;;;;;;;17.93;48.68;101106.28;5046531;28;20041;-36
2023/04/11 05:14:55;;;;;;;12.93;6.93;;;;;;;17.93;49.05;101110.78;5049571;28;20835;-36
2023/04/11 05:17:23;;;;;;;16.27;7.28;;;;;;;17.93;48.94;101110.78;5041637;28;20544;-36
2023/04/11 05:19:51;;;;;;;14.43;6.95;;;;;;;17.94;48.88;101123.22;5046726;28;20049;-36
2023/04/11 05:22:17;;;;;;;13.90;7.82;;;;;;;17.97;48.79;101112.22;5048081;28;20041;-35
2023/04/11 05:24:44;;;;;;;18.48;7.85;;;;;;;17.97;49.07;101122.94;5048638;28;20063;-36
2023/04/11 05:27:12;;;;;;;14.30;7.40;;;;;;;17.97;48.69;101110.38;5049641;28;20045;-36
2023/04/11 05:29:38;;;;;;;13.23;6.97;;;;;;;17.99;48.86;101119.09;5048063;28;20230;-36
2023/04/11 05:32:05;;;;;;;16.88;7.68;;;;;;;18.00;48.64;101128.00;5045597;28;20045;-36
2023/04/11 05:34:33;;;;;;;13.27;7.50;;;;;;;18.03;48.54;101137.59;5047178;28;20092;-35
2023/04/11 05:37:00;;;;;;;15.55;8.02;;;;;;;18.06;48.71;101131.94;5048587;28;20060;-36
2023/04/11 05:39:26;;;;;;;14.27;8.07;;;;;;;18.09;48.84;101132.50;5048441;28;20132;-36
2023/04/11 05:41:53;;;;;;;16.85;8.15;;;;;;;18.12;49.00;101134.84;5049307;28;20052;-37
2023/04/11 05:44:20;;;;;;;13.57;7.47;;;;;;;18.16;48.47;101143.47;5047738;28;20386;-36
2023/04/11 05:46:46;;;;;;;15.13;7.47;;;;;;;18.19;48.62;101140.50;5048369;28;20049;-36
2023/04/11 05:49:13;;;;;;;15.43;7.35;;;;;;;18.23;48.24;101149.94;5049976;28;20088;-36
2023/04/11 05:51:39;;;;;;;16.80;7.30;;;;;;;18.28;48.10;101154.84;5047867;28;20049;-36
2023/04/11 05:54:06;;;;;;;13.07;7.10;;;;;;;18.30;48.15;101160.94;5048496;28;20049;-36
2023/04/11 05:56:34;;;;;;;15.07;8.10;;;;;;;18.32;48.43;101161.63;5051337;28;20399;-36
2023/04/11 05:59:00;;;;;;;15.13;7.28;;;;;;;18.34;47.70;101163.16;5054056;28;20092;-36
2023/04/11 06:01:29;;;;;;;12.60;7.40;;;;;;;18.36;47.59;101160.31;5052825;28;20132;-36
2023/04/11 06:03:56;;;;;;;15.30;7.50;;;;;;;18.39;47.74;101168.09;5052927;28;20044;-36
2023/04/11 06:06:23;;;;;;;15.35;7.53;;;;;;;18.40;47.64;101167.94;5050210;28;20067;-37
2023/04/11 06:08:50;;;;;;;13.93;7.15;;;;;;;18.42;47.24;101165.13;5052845;28;20048;-37
2023/04/11 06:11:16;;;;;;;13.27;7.35;;;;;;;18.45;47.93;101170.16;5054341;28;20099;-36
2023/04/11 06:13:43;;;;;;;14.77;7.25;;;;;;;18.48;47.48;101180.63;5046579;28;20050;-37
2023/04/11 06:16:09;;;;;;;11.98;6.85;;;;;;;18.52;47.96;101178.47;5048639;28;20056;-36
2023/04/11 06:18:36;;;;;;;11.60;6.65;;;;;;;18.56;47.57;101177.19;5051582;28;20124;-36
2023/04/11 06:21:03;;;;;;;12.68;7.10;;;;;;;18.58;47.59;101177.91;5050714;28;20336;-35
2023/04/11 06:23:29;;;;;;;12.70;6.80;;;;;;;18.63;47.66;101178.28;5051863;28;20692;-35
2023/04/11 06:25:56;;;;;;;10.90;6.32;;;;;;;18.67;47.47;101185.88;5048802;28;20167;-35
2023/04/11 06:28:22;;;;;;;11.73;6.43;;;;;;;18.70;47.20;101184.78;5048997;28;20061;-37
2023/04/11 06:30:49;;;;;;;12.73;5.95;;;;;;;18.73;47.17;101193.41;5050005;28;20049;-36
2023/04/11 06:33:15;;;;;;;11.88;6.55;;;;;;;18.76;47.04;101199.44;5050718;28;20453;-36
2023/04/11 06:35:42;;;;;;;11.95;6.35;;;;;;;18.78;46.78;101192.09;5051175;28;20059;-36
2023/04/11 06:38:09;;;;;;;11.65;6.30;;;;;;;18.81;46.99;101189.94;5047102;28;20397;-37
2023/04/11 06:40:35;;;;;;;12.43;6.35;;;;;;;18.85;47.09;101194.00;5053648;28;20075;-36
2023/04/11 06:43:02;;;;;;;10.88;5.88;;;;;;;18.88;46.71;101200.94;5051225;28;20119;-36
2023/04/11 06:45:28;;;;;;;10.27;5.22;;;;;;;18.90;47.01;101205.16;5050333;28;20329;-36
2023/04/11 06:47:55;;;;;;;12.35;6.07;;;;;;;18.94;46.72;101203.03;5052166;28;20380;-36
2023/04/11 06:50:22;;;;;;;10.48;5.43;;;;;;;18.96;46.60;101206.38;5051668;28;20309;-36
2023/04/11 06:52:48;;;;;;;10.57;5.40;;;;;;;18.98;46.53;101212.47;5052873;28;20051;-37
2023/04/11 06:55:15;;;;;;;11.43;5.05;;;;;;;18.99;46.62;101212.31;5052119;28;20057;-37
2023/04/11 06:57:42;;;;;;;10.73;5.40;;;;;;;19.02;46.70;101216.56;5055103;28;20156;-37
2023/04/11 07:00:11;;;;;;;9.85;4.72;;;;;;;19.03;46.22;101212.84;5052334;28;20087;-35
2023/04/11 07:02:38;;;;;;;10.35;4.97;;;;;;;19.05;46.52;101226.97;5052122;28;20084;-36
2023/04/11 07:05:05;;;;;;;10.32;4.97;;;;;;;19.06;46.17;101217.09;5051690;28;20071;-36
2023/04/11 07:07:32;;;;;;;11.93;4.80;;;;;;;19.08;46.33;101231.22;5051075;28;20063;-36
2023/04/11 07:09:58;;;;;;;8.10;4.30;;;;;;;19.08;45.80;101223.16;5052689;28;20531;-36
2023/04/11 07:12:25;;;;;;;12.13;5.05;;;;;;;19.07;45.81;101229.53;5053050;28;20472;-37
2023/04/11 07:14:51;;;;;;;10.63;4.53;;;;;;;19.07;46.00;101225.00;5052355;28;20049;-36
2023/04/11 07:17:18;;;;;;;9.38;4.65;;;;;;;19.08;45.64;101231.22;5051491;28;20076;-37
2023/04/11 07:19:45;;;;;;;9.82;4.50;;;;;;;19.07;45.96;101232.22;5049941;28;20199;-37
2023/04/11 07:22:12;;;;;;;9.52;4.53;;;;;;;19.06;45.71;101231.38;5047811;28;20058;-36
2023/04/11 07:24:38;;;;;;;6.97;3.45;;;;;;;19.06;45.89;101234.06;5050248;28;20344;-36
2023/04/11 07:27:05;;;;;;;7.95;4.10;;;;;;;19.07;45.52;101242.97;5051509;28;20053;-36
2023/04/11 07:29:32;;;;;;;8.02;3.65;;;;;;;19.06;45.78;101246.66;5045297;28;20071;-36
2023/04/11 07:31:58;;;;;;;9.20;3.75;;;;;;;19.08;45.94;101247.31;5047567;28;20447;-35
2023/04/11 07:34:25;;;;;;;8.77;4.20;;;;;;;19.07;45.67;101251.84;5051036;28;20076;-36
2023/04/11 07:36:52;;;;;;;11.05;3.95;;;;;;;19.08;46.04;101252.69;5050260;28;20053;-36
2023/04/11 07:39:18;;;;;;;6.55;3.42;;;;;;;19.08;45.84;101255.38;5052418;28;20049;-35
2023/04/11 07:41:45;;;;;;;9.52;3.97;;;;;;;19.08;45.91;101252.69;5049129;28;20521;-35
2023/04/11 07:44:11;;;;;;;8.95;3.95;;;;;;;19.08;45.43;101252.69;5050395;28;20056;-36
2023/04/11 07:46:38;;;;;;;7.60;3.90;;;;;;;19.07;45.42;101261.75;5050587;28;20338;-36
2023/04/11 07:49:04;;;;;;;9.55;3.55;;;;;;;19.08;45.97;101269.66;5048597;28;20128;-35
2023/04/11 07:51:31;;;;;;;7.65;3.25;;;;;;;19.08;45.53;101271.50;5052002;28;20059;-36
2023/04/11 07:53:58;;;;;;;7.75;3.20;;;;;;;19.09;45.73;101265.13;5053094;28;20045;-36
2023/04/11 07:56:25;;;;;;;7.80;3.38;;;;;;;19.10;45.38;101261.47;5052431;28;20055;-36
2023/04/11 07:58:52;;;;;;;8.25;3.10;;;;;;;19.09;45.26;101262.44;5052294;28;20057;-36
2023/04/11 08:01:20;;;;;;;6.97;2.83;;;;;;;19.10;45.63;101277.59;5051594;28;20048;-36
2023/04/11 08:03:46;;;;;;;7.20;2.90;;;;;;;19.10;45.44;101264.16;5050578;28;20049;-36
2023/04/11 08:06:13;;;;;;;7.40;2.85;;;;;;;19.10;45.53;101275.75;5049923;28;20052;-36
2023/04/11 08:08:40;;;;;;;5.10;2.45;;;;;;;19.11;45.47;101274.75;5049379;28;20048;-36
2023/04/11 08:11:07;;;;;;;6.13;2.58;;;;;;;19.12;45.79;101284.50;5048193;28;20053;-35
2023/04/11 08:13:33;;;;;;;6.53;2.70;;;;;;;19.13;45.63;101282.66;5047622;28;20067;-37
2023/04/11 08:16:01;;;;;;;6.20;2.97;;;;;;;19.15;45.50;101292.25;5050033;28;20161;-37
2023/04/11 08:18:28;;;;;;;3.78;2.00;;;;;;;19.17;45.76;101289.41;5046724;28;20041;-39
2023/04/11 08:20:55;;;;;;;6.15;2.15;;;;;;;19.18;45.39;101294.66;5045731;28;20132;-36
2023/04/11 08:23:21;;;;;;;6.38;2.42;;;;;;;19.22;45.49;101292.50;5047027;28;20233;-38
2023/04/11 08:25:48;;;;;;;11.25;2.83;;;;;;;19.24;45.55;101301.25;5050780;28;20441;-35
2023/04/11 08:28:15;;;;;;;7.90;2.28;;;;;;;19.28;44.71;101304.50;5049846;28;20055;-37
2023/04/11 08:30:41;;;;;;;7.22;2.42;;;;;;;19.30;45.48;101306.03;5050183;28;20106;-36
2023/04/11 08:33:09;;;;;;;6.07;2.03;;;;;;;19.31;44.62;101305.03;5048502;28;20041;-36
2023/04/11 08:35:36;;;;;;;5.60;1.98;;;;;;;19.34;44.80;101311.97;5050901;28;20133;-35
2023/04/11 08:38:03;;;;;;;6.32;2.50;;;;;;;19.35;44.91;101314.50;5047730;28;20115;-36
2023/04/11 08:40:29;;;;;;;7.70;2.30;;;;;;;19.38;44.51;101303.44;5046854;28;20857;-36
2023/04/11 08:43:00;;;;;;;6.68;1.90;;;;;;;19.41;44.66;101323.78;5049705;28;20125;-36
2023/04/11 08:45:27;;;;;;;8.70;2.28;;;;;;;19.42;44.82;101323.66;5050029;28;20323;-36
2023/04/11 08:47:54;;;;;;;4.70;1.80;;;;;;;19.44;44.39;101326.19;5052004;28;20041;-37
2023/04/11 08:50:28;;;;;;;6.03;1.95;;;;;;;19.46;44.13;101326.88;5098774;27;21041;-36
2023/04/11 08:52:58;;;;;;;5.45;1.77;;;;;;;19.48;44.24;101327.56;5081149;28;20063;-36
2023/04/11 08:55:24;;;;;;;6.22;2.15;;;;;;;19.51;44.06;101323.75;5084021;28;20095;-36
2023/04/11 08:57:52;;;;;;;4.80;1.60;;;;;;;19.54;44.24;101334.16;5077132;28;20455;-36
2023/04/11 09:00:22;;;;;;;7.30;1.73;;;;;;;19.57;44.01;101333.88;5076541;28;20045;-36
2023/04/11 09:02:57;;;;;;;5.22;1.67;;;;;;;19.58;43.88;101331.06;5077730;28;20451;-35
2023/04/11 09:05:30;;;;;;;5.72;1.55;;;;;;;19.60;43.96;101334.41;5078036;28;20118;-36
2023/04/11 09:07:58;;;;;;;4.95;1.55;;;;;;;19.63;44.08;101341.38;5078341;28;20434;-37
2023/04/11 09:10:26;;;;;;;4.55;1.42;;;;;;;19.65;43.86;101332.13;5078440;28;20071;-36
2023/04/11 09:12:54;;;;;;;5.60;1.40;;;;;;;19.67;44.06;101337.38;5086945;28;20148;-36
2023/04/11 09:15:24;;;;;;;4.40;1.48;;;;;;;19.69;44.04;101352.34;5081920;28;20048;-36
2023/04/11 09:17:51;;;;;;;5.53;1.42;;;;;;;19.72;43.79;101340.47;5077904;28;20139;-35
2023/04/11 09:20:20;;;;;;;5.30;1.17;;;;;;;19.73;43.72;101332.22;5074846;28;20044;-36
2023/04/11 09:22:50;;;;;;;5.82;1.70;;;;;;;19.75;43.93;101340.16;5080128;28;20199;-36
2023/04/11 09:25:21;;;;;;;6.75;2.00;;;;;;;19.78;43.53;101341.66;5082025;28;20430;-37
2023/04/11 09:27:49;;;;;;;4.18;1.20;;;;;;;19.80;43.80;101351.28;5078757;28;20139;-36
2023/04/11 09:30:24;;;;;;;4.30;1.60;;;;;;;19.83;44.00;101353.69;5077820;28;20047;-35
2023/04/11 09:32:52;;;;;;;4.45;1.52;;;;;;;19.85;43.43;101345.44;5092364;28;20135;-35
2023/04/11 09:35:24;;;;;;;4.88;1.30;;;;;;;19.88;43.32;101350.53;5079762;28;20060;-36
2023/04/11 09:37:58;;;;;;;4.05;1.52;;;;;;;19.88;43.21;101359.44;5081602;28;20387;-35
2023/04/11 09:40:26;;;;;;;4.07;1.50;;;;;;;19.90;42.88;101352.09;5076500;28;20087;-37
2023/04/11 09:43:01;;;;;;;3.92;1.30;;;;;;;19.92;42.99;101359.97;5077886;28;20486;-35
2023/04/11 09:45:29;;;;;;;4.07;1.35;;;;;;;19.95;43.14;101360.53;5077525;28;20103;-36
2023/04/11 09:48:01;;;;;;;;;;;;;;;19.99;42.93;101366.44;5080621;28;20351;-37
2023/04/11 09:50:28;;;;;;;5.70;1.23;;;;;;;20.06;43.25;101361.28;5079711;28;20011;-37
2023/04/11 09:52:55;;;;;;;2.78;1.20;;;;;;;20.06;42.81;101372.91;5078477;28;20131;-37
2023/04/11 09:55:24;;;;;;;3.70;1.45;;;;;;;20.09;43.26;101367.19;5078426;28;20053;-36
2023/04/11 09:57:53;;;;;;;3.17;1.17;;;;;;;20.12;43.31;101360.69;5080332;28;20144;-35
2023/04/11 10:00:23;;;;;;;5.95;1.30;;;;;;;20.17;42.50;101361.03;5071666;28;20083;-36
2023/04/11 10:02:52;;;;;;;4.43;1.20;;;;;;;20.23;42.34;101354.22;5065349;28;20353;-36
2023/04/11 10:05:26;;;;;;;4.03;1.45;;;;;;;20.29;42.72;101367.03;5065956;28;20557;-36
2023/04/11 10:08:20;;;;;;;5.20;1.40;;;;;;;20.32;42.93;101356.81;5060976;28;20597;-36
2023/04/11 10:10:47;;;;;;;3.80;1.27;;;;;;;20.37;42.91;101361.72;5062368;28;20049;-36
2023/04/11 10:13:38;;;;;;;3.60;1.13;;;;;;;20.39;42.88;101357.88;5066053;28;20044;-36
2023/04/11 10:16:07;;;;;;;3.45;1.10;;;;;;;20.45;42.27;101362.63;5063591;28;20072;-36
2023/04/11 10:18:35;;;;;;;4.50;1.13;;;;;;;20.47;42.36;101367.88;5066033;28;20064;-37
2023/04/11 10:21:03;;;;;;;3.60;1.00;;;;;;;20.51;42.34;101366.59;5064723;28;20045;-36
2023/04/11 10:24:15;;;;;;;8.50;1.95;;;;;;;20.56;42.53;101358.03;5062428;28;20049;-36
2023/04/11 10:26:50;;;;;;;3.08;1.08;;;;;;;20.64;42.18;101366.16;5062132;28;20131;-36
2023/04/11 10:29:41;;;;;;;3.92;1.25;;;;;;;20.68;42.14;101368.38;5063389;28;20048;-37
2023/04/11 10:32:14;;;;;;;5.13;1.45;;;;;;;20.73;42.09;101358.97;5060686;28;20345;-36
2023/04/11 10:34:52;;;;;;;5.35;1.48;;;;;;;20.79;41.60;101369.13;5060110;28;20055;-36
2023/04/11 10:37:37;;;;;;;4.82;1.50;;;;;;;20.82;42.01;101372.31;5067399;28;20052;-36
2023/04/11 10:40:09;;;;;;;3.65;1.00;;;;;;;20.89;42.15;101376.06;5061483;28;20059;-36
2023/04/11 10:42:41;;;;;;;6.57;1.25;;;;;;;20.94;41.65;101376.47;5066649;28;20052;-38
2023/04/11 10:45:17;;;;;;;3.47;1.50;;;;;;;20.98;41.42;101374.28;5064344;28;20503;-35
2023/04/11 10:47:50;;;;;;;4.47;1.45;;;;;;;21.01;40.91;101382.03;5067156;28;20427;-35
2023/04/11 10:50:25;;;;;;;4.15;1.38;;;;;;;21.06;41.45;101377.00;5065558;28;20078;-36
2023/04/11 10:52:54;;;;;;;3.13;1.20;;;;;;;21.10;41.14;101383.75;5064408;28;20051;-36
2023/04/11 10:55:21;;;;;;;3.05;0.90;;;;;;;21.13;41.29;101375.34;5066074;28;20056;-36
2023/04/11 10:58:06;;;;;;;2.35;0.93;;;;;;;21.17;40.79;101386.66;5076570;28;20052;-36
2023/04/11 11:00:46;;;;;;;5.47;1.67;;;;;;;21.20;40.78;101379.09;5062600;28;20053;-37
2023/04/11 11:03:15;;;;;;;4.63;1.02;;;;;;;21.27;40.69;101383.88;5082395;28;20080;-36
2023/04/11 11:05:42;;;;;;;4.75;1.20;;;;;;;21.29;40.85;101393.47;5066423;28;20075;-36
2023/04/11 11:08:09;;;;;;;3.80;1.00;;;;;;;21.32;40.70;101382.41;5063054;28;20057;-36
2023/04/11 11:10:46;;;;;;;2.72;1.00;;;;;;;21.35;40.73;101387.47;5072720;28;20060;-36
2023/04/11 11:13:14;;;;;;;4.32;1.17;;;;;;;21.34;40.40;101393.00;5067854;28;20462;-37
2023/04/11 11:15:48;;;;;;;3.80;1.23;;;;;;;21.36;40.42;101397.25;5068183;28;20048;-36
2023/04/11 11:18:15;;;;;;;;;;;;;;;21.38;40.59;101389.81;5067916;28;20049;-36
2023/04/11 11:20:42;;;;;;;4.28;1.17;;;;;;;21.44;40.06;101394.56;5064034;28;20006;-37
2023/04/11 11:23:10;;;;;;;4.95;1.30;;;;;;;21.46;40.36;101397.09;5067575;28;20156;-36
2023/04/11 11:25:37;;;;;;;5.00;1.27;;;;;;;21.48;40.02;101395.09;5061786;28;20053;-36